Time;durP1;ratioP1;P1;durP2;ratioP2;P2;SDS_P1;SDS_P2;PMS_P1;PMS_P2;Temp;Humidity;BMP_temperature;BMP_pressure;BME280_temperature;BME280_humidity;BME280_pressure;Samples;Min_cycle;Max_cycle;Signal;HPM_P1;HPM_P2
2021/08/11 00:01:50;;;;;;;12.60;7.18;;;;;;;;;;4994856;28;20038;-79
2021/08/11 00:04:17;;;;;;;11.20;7.95;;;;;;;;;;4998571;28;20038;-80
2021/08/11 00:06:43;;;;;;;9.18;8.27;;;;;;;;;;5016886;28;20026;-80
2021/08/11 00:09:09;;;;;;;12.13;7.47;;;;;;;;;;5015930;28;20065;-78
2021/08/11 00:11:35;;;;;;;12.82;7.68;;;;;;;;;;5008036;28;20484;-78
2021/08/11 00:14:01;;;;;;;7.97;7.15;;;;;;;;;;4997117;28;20034;-78
2021/08/11 00:16:27;;;;;;;7.53;6.78;;;;;;;;;;4997403;28;20388;-78
2021/08/11 00:18:54;;;;;;;11.65;7.07;;;;;;;;;;4996724;28;20046;-79
2021/08/11 00:21:20;;;;;;;10.15;7.53;;;;;;;;;;4996644;28;20058;-80
2021/08/11 00:23:46;;;;;;;8.32;7.20;;;;;;;;;;4996564;28;20026;-79
2021/08/11 00:26:12;;;;;;;8.57;7.38;;;;;;;;;;4996893;28;20026;-81
2021/08/11 00:28:38;;;;;;;10.10;7.03;;;;;;;;;;4997107;28;20058;-79
2021/08/11 00:31:04;;;;;;;10.30;6.97;;;;;;;;;;4979037;28;20034;-80
2021/08/11 00:33:29;;;;;;;8.07;7.25;;;;;;;;;;4996501;28;20026;-80
2021/08/11 00:35:55;;;;;;;15.05;7.00;;;;;;;;;;4979437;28;20048;-79
2021/08/11 00:38:22;;;;;;;8.63;7.65;;;;;;;;;;4996303;28;20034;-80
2021/08/11 00:40:48;;;;;;;10.88;6.75;;;;;;;;;;5005293;28;20024;-80
2021/08/11 00:43:14;;;;;;;10.75;7.03;;;;;;;;;;5016028;28;20209;-81
2021/08/11 00:45:40;;;;;;;9.13;7.72;;;;;;;;;;5015790;28;20057;-80
2021/08/11 00:48:10;;;;;;;11.63;7.55;;;;;;;;;;4995804;28;20104;-79
2021/08/11 00:50:37;;;;;;;12.80;8.02;;;;;;;;;;4996139;28;20053;-79
2021/08/11 00:53:05;;;;;;;8.85;7.55;;;;;;;;;;4997437;28;20027;-79
2021/08/11 00:55:33;;;;;;;8.40;7.60;;;;;;;;;;5016112;28;20083;-79
2021/08/11 00:57:59;;;;;;;11.93;7.68;;;;;;;;;;5015288;28;20087;-80
2021/08/11 01:00:24;;;;;;;10.30;7.38;;;;;;;;;;5014617;28;20018;-80
2021/08/11 01:02:50;;;;;;;10.82;7.80;;;;;;;;;;4959359;28;20030;-80
2021/08/11 01:05:18;;;;;;;14.85;7.78;;;;;;;;;;4983124;28;20061;-80
2021/08/11 01:07:43;;;;;;;12.38;7.68;;;;;;;;;;4978173;28;20023;-80
2021/08/11 01:10:09;;;;;;;11.57;7.45;;;;;;;;;;4995402;28;20060;-80
2021/08/11 01:12:35;;;;;;;12.80;6.45;;;;;;;;;;4996222;28;20058;-81
2021/08/11 01:15:02;;;;;;;8.40;7.28;;;;;;;;;;4993949;28;20065;-80
2021/08/11 01:17:28;;;;;;;11.00;7.72;;;;;;;;;;4995722;28;20046;-80
2021/08/11 01:19:57;;;;;;;8.50;7.45;;;;;;;;;;4995461;28;20034;-80
2021/08/11 01:22:23;;;;;;;9.98;6.70;;;;;;;;;;4984512;28;20069;-81
2021/08/11 01:24:56;;;;;;;15.85;6.65;;;;;;;;;;4976331;28;20034;-81
2021/08/11 01:27:26;;;;;;;12.07;6.72;;;;;;;;;;4976426;28;20030;-80
2021/08/11 01:29:54;;;;;;;11.43;8.18;;;;;;;;;;4977423;28;20034;-80
2021/08/11 01:32:40;;;;;;;10.63;8.32;;;;;;;;;;4976575;28;20038;-82
2021/08/11 01:35:09;;;;;;;17.87;11.80;;;;;;;;;;4950646;28;20038;-79
2021/08/11 01:37:36;;;;;;;17.70;11.35;;;;;;;;;;4994711;28;20046;-78
2021/08/11 01:40:02;;;;;;;16.13;12.05;;;;;;;;;;4998175;28;20088;-80
2021/08/11 01:42:29;;;;;;;17.08;13.38;;;;;;;;;;5014636;28;20037;-80
2021/08/11 01:45:12;;;;;;;21.83;12.10;;;;;;;;;;5014746;28;20519;-79
2021/08/11 01:47:41;;;;;;;15.50;10.95;;;;;;;;;;4997400;28;20034;-81
2021/08/11 01:50:08;;;;;;;17.10;10.55;;;;;;;;;;5002858;28;20335;-81
2021/08/11 01:52:40;;;;;;;12.73;9.20;;;;;;;;;;4995751;28;20053;-80
2021/08/11 01:55:08;;;;;;;12.38;7.68;;;;;;;;;;4994505;28;20064;-79
2021/08/11 01:57:34;;;;;;;12.50;7.15;;;;;;;;;;5006387;28;20037;-79
2021/08/11 02:00:01;;;;;;;9.63;6.85;;;;;;;;;;4994879;28;20038;-80
2021/08/11 02:02:27;;;;;;;11.43;7.18;;;;;;;;;;4995131;28;20397;-81
2021/08/11 02:04:53;;;;;;;11.70;6.43;;;;;;;;;;4994384;28;20030;-78
2021/08/11 02:07:19;;;;;;;8.40;6.13;;;;;;;;;;4994600;28;20533;-78
2021/08/11 02:09:45;;;;;;;11.73;6.95;;;;;;;;;;4994627;28;20058;-82
2021/08/11 02:12:10;;;;;;;12.32;6.50;;;;;;;;;;4995048;28;20041;-81
2021/08/11 02:14:38;;;;;;;10.32;6.15;;;;;;;;;;4994644;28;20110;-81
2021/08/11 02:17:03;;;;;;;10.35;6.82;;;;;;;;;;4992825;28;20555;-81
2021/08/11 02:19:29;;;;;;;14.02;7.32;;;;;;;;;;4995113;28;20030;-80
2021/08/11 02:21:54;;;;;;;13.93;7.18;;;;;;;;;;4994820;28;20126;-82
2021/08/11 02:24:20;;;;;;;8.90;6.80;;;;;;;;;;4984741;28;20518;-80
2021/08/11 02:26:46;;;;;;;12.00;6.82;;;;;;;;;;4974952;28;20397;-80
2021/08/11 02:29:18;;;;;;;6.00;5.38;;;;;;;;;;4975421;28;20493;-81
2021/08/11 02:31:48;;;;;;;10.98;6.25;;;;;;;;;;4979339;28;20037;-81
2021/08/11 02:34:43;;;;;;;9.23;6.82;;;;;;;;;;4976969;28;20034;-80
2021/08/11 02:37:17;;;;;;;9.07;7.65;;;;;;;;;;4928560;28;20073;-80
2021/08/11 02:40:06;;;;;;;10.55;6.70;;;;;;;;;;4992093;28;20038;-78
2021/08/11 02:42:44;;;;;;;10.52;6.93;;;;;;;;;;4985711;28;20041;-79
2021/08/11 02:45:13;;;;;;;10.30;7.72;;;;;;;;;;4996842;28;20038;-79
2021/08/11 02:47:39;;;;;;;9.25;7.88;;;;;;;;;;4994472;28;20045;-79
2021/08/11 02:50:06;;;;;;;8.23;7.43;;;;;;;;;;4993845;28;20437;-81
2021/08/11 02:52:32;;;;;;;8.90;7.60;;;;;;;;;;4994011;28;20117;-79
2021/08/11 02:54:58;;;;;;;9.52;8.48;;;;;;;;;;5002285;28;20034;-81
2021/08/11 02:57:24;;;;;;;14.20;7.95;;;;;;;;;;5000554;28;20037;-79
2021/08/11 02:59:50;;;;;;;8.93;7.60;;;;;;;;;;4997752;28;20042;-81
2021/08/11 03:02:15;;;;;;;10.00;8.13;;;;;;;;;;4977150;28;20023;-82
2021/08/11 03:04:42;;;;;;;14.27;9.98;;;;;;;;;;4985575;28;20042;-80
2021/08/11 03:07:08;;;;;;;13.95;10.18;;;;;;;;;;4975018;28;20030;-79
2021/08/11 03:09:35;;;;;;;14.30;11.43;;;;;;;;;;4977452;28;20074;-80
2021/08/11 03:12:01;;;;;;;19.98;12.98;;;;;;;;;;5013376;28;20034;-80
2021/08/11 03:14:27;;;;;;;13.20;11.18;;;;;;;;;;4998430;28;20037;-80
2021/08/11 03:16:53;;;;;;;16.17;12.25;;;;;;;;;;5006663;28;20104;-80
2021/08/11 03:19:19;;;;;;;16.10;11.80;;;;;;;;;;5013399;28;20053;-81
2021/08/11 03:21:45;;;;;;;16.75;12.50;;;;;;;;;;5013479;28;20025;-81
2021/08/11 03:24:10;;;;;;;15.27;12.02;;;;;;;;;;5013275;28;20030;-82
2021/08/11 03:26:36;;;;;;;17.10;13.38;;;;;;;;;;5013653;28;20022;-83
2021/08/11 03:29:02;;;;;;;17.05;14.10;;;;;;;;;;4994008;28;20536;-83
2021/08/11 03:31:29;;;;;;;13.60;12.20;;;;;;;;;;4993972;28;20030;-82
2021/08/11 03:33:55;;;;;;;19.90;14.10;;;;;;;;;;4981385;28;20055;-81
2021/08/11 03:36:21;;;;;;;15.63;12.48;;;;;;;;;;4974474;28;20575;-82
2021/08/11 03:38:46;;;;;;;16.67;12.98;;;;;;;;;;4974620;28;20046;-82
2021/08/11 03:41:12;;;;;;;16.58;13.13;;;;;;;;;;4998944;28;20030;-82
2021/08/11 03:43:37;;;;;;;17.35;13.90;;;;;;;;;;5001344;28;20057;-81
2021/08/11 03:46:03;;;;;;;16.55;13.07;;;;;;;;;;4993864;28;20350;-81
2021/08/11 03:48:28;;;;;;;16.67;13.65;;;;;;;;;;4973960;28;20030;-81
2021/08/11 03:50:54;;;;;;;15.45;13.30;;;;;;;;;;5006174;28;20463;-80
2021/08/11 03:53:19;;;;;;;19.40;13.15;;;;;;;;;;4957159;28;20043;-81
2021/08/11 03:55:45;;;;;;;14.68;12.75;;;;;;;;;;4973806;28;20081;-80
2021/08/11 03:58:11;;;;;;;18.85;13.30;;;;;;;;;;4988439;28;20447;-80
2021/08/11 04:00:37;;;;;;;17.05;13.68;;;;;;;;;;4993783;28;20026;-82
2021/08/11 04:03:03;;;;;;;17.27;13.55;;;;;;;;;;4993045;28;20030;-81
2021/08/11 04:05:28;;;;;;;18.77;13.57;;;;;;;;;;4991839;28;20030;-83
2021/08/11 04:07:54;;;;;;;18.58;13.57;;;;;;;;;;5008342;28;20052;-83
2021/08/11 04:10:19;;;;;;;19.00;13.80;;;;;;;;;;4973309;28;20062;-83
2021/08/11 04:12:45;;;;;;;20.08;14.55;;;;;;;;;;4973771;28;20031;-83
2021/08/11 04:15:11;;;;;;;23.77;14.90;;;;;;;;;;4973427;28;20042;-81
2021/08/11 04:17:36;;;;;;;15.88;13.30;;;;;;;;;;4973730;28;20129;-81
2021/08/11 04:20:02;;;;;;;19.10;14.50;;;;;;;;;;4973735;28;20042;-81
2021/08/11 04:22:28;;;;;;;21.55;14.13;;;;;;;;;;4973822;28;20030;-81
2021/08/11 04:24:53;;;;;;;18.13;15.45;;;;;;;;;;4982843;28;20037;-81
2021/08/11 04:27:19;;;;;;;19.27;14.70;;;;;;;;;;4992653;28;20042;-80
2021/08/11 04:29:45;;;;;;;16.33;14.13;;;;;;;;;;4993155;28;20109;-80
2021/08/11 04:32:10;;;;;;;14.90;13.25;;;;;;;;;;4993471;28;20036;-81
2021/08/11 04:34:36;;;;;;;20.88;15.75;;;;;;;;;;4993619;28;20057;-80
2021/08/11 04:37:01;;;;;;;19.85;14.98;;;;;;;;;;4996570;28;20034;-80
2021/08/11 04:39:27;;;;;;;21.02;15.60;;;;;;;;;;4989105;28;20041;-80
2021/08/11 04:41:52;;;;;;;17.45;15.32;;;;;;;;;;4998059;28;20166;-81
2021/08/11 04:44:18;;;;;;;17.02;15.15;;;;;;;;;;4996343;28;20413;-81
2021/08/11 04:46:43;;;;;;;18.20;15.38;;;;;;;;;;5011915;28;20030;-81
2021/08/11 04:49:09;;;;;;;22.23;16.20;;;;;;;;;;4996639;28;20447;-82
2021/08/11 04:51:34;;;;;;;20.23;15.38;;;;;;;;;;4996067;28;20037;-81
2021/08/11 04:54:00;;;;;;;15.90;14.23;;;;;;;;;;4995641;28;20034;-80
2021/08/11 04:56:25;;;;;;;15.95;14.18;;;;;;;;;;4996855;28;20065;-80
2021/08/11 04:58:52;;;;;;;20.25;15.32;;;;;;;;;;4996190;28;20061;-80
2021/08/11 05:01:18;;;;;;;16.88;15.27;;;;;;;;;;4996921;28;20077;-80
2021/08/11 05:03:43;;;;;;;23.08;15.65;;;;;;;;;;4991934;28;20031;-80
2021/08/11 05:06:09;;;;;;;17.83;15.13;;;;;;;;;;4988648;28;20031;-80
2021/08/11 05:08:36;;;;;;;18.58;15.23;;;;;;;;;;4996480;28;20523;-81
2021/08/11 05:11:01;;;;;;;17.27;14.27;;;;;;;;;;4995999;28;20472;-81
2021/08/11 05:13:27;;;;;;;19.33;14.32;;;;;;;;;;4996066;28;20065;-81
2021/08/11 05:15:53;;;;;;;22.23;16.70;;;;;;;;;;4996629;28;20034;-81
2021/08/11 05:18:18;;;;;;;26.80;16.48;;;;;;;;;;4996198;28;20050;-80
2021/08/11 05:20:44;;;;;;;19.65;16.05;;;;;;;;;;4989072;28;20387;-82
2021/08/11 05:23:10;;;;;;;21.15;15.55;;;;;;;;;;4976608;28;20073;-81
2021/08/11 05:25:35;;;;;;;19.25;15.88;;;;;;;;;;4976684;28;20038;-81
2021/08/11 05:28:01;;;;;;;21.70;15.73;;;;;;;;;;4976802;28;20030;-80
2021/08/11 05:30:26;;;;;;;16.42;14.40;;;;;;;;;;4976203;28;20027;-80
2021/08/11 05:32:52;;;;;;;22.60;15.45;;;;;;;;;;4989245;28;20034;-81
2021/08/11 05:35:17;;;;;;;17.33;15.38;;;;;;;;;;4995924;28;20090;-81
2021/08/11 05:37:43;;;;;;;20.95;15.20;;;;;;;;;;4995744;28;20519;-79
2021/08/11 05:40:09;;;;;;;17.45;14.60;;;;;;;;;;4998416;28;20033;-82
2021/08/11 05:42:34;;;;;;;20.98;16.27;;;;;;;;;;5015312;28;20025;-80
2021/08/11 05:45:00;;;;;;;23.52;16.15;;;;;;;;;;5015664;28;20026;-80
2021/08/11 05:47:25;;;;;;;21.08;16.75;;;;;;;;;;4992439;28;20026;-80
2021/08/11 05:49:51;;;;;;;20.45;16.63;;;;;;;;;;4975886;28;20397;-80
2021/08/11 05:52:16;;;;;;;22.67;18.10;;;;;;;;;;4958405;28;20397;-81
2021/08/11 05:54:42;;;;;;;21.63;18.80;;;;;;;;;;4976881;28;20393;-79
2021/08/11 05:57:11;;;;;;;25.33;19.00;;;;;;;;;;4994894;28;20223;-81
2021/08/11 05:59:37;;;;;;;25.27;18.23;;;;;;;;;;4995111;28;20022;-81
2021/08/11 06:02:03;;;;;;;20.52;16.17;;;;;;;;;;4993556;28;20027;-81
2021/08/11 06:04:28;;;;;;;21.10;18.15;;;;;;;;;;4994581;28;20042;-80
2021/08/11 06:06:54;;;;;;;21.75;18.20;;;;;;;;;;4995299;28;20022;-81
2021/08/11 06:09:19;;;;;;;26.30;18.48;;;;;;;;;;4995462;28;20089;-80
2021/08/11 06:11:45;;;;;;;23.65;16.55;;;;;;;;;;4995058;28;20118;-79
2021/08/11 06:14:11;;;;;;;21.70;17.63;;;;;;;;;;4995315;28;20023;-83
2021/08/11 06:16:37;;;;;;;23.05;19.48;;;;;;;;;;4994631;28;20041;-81
2021/08/11 06:19:03;;;;;;;22.92;18.83;;;;;;;;;;5009397;28;20041;-80
2021/08/11 06:21:28;;;;;;;21.75;18.98;;;;;;;;;;4993635;28;20425;-81
2021/08/11 06:23:54;;;;;;;19.58;17.35;;;;;;;;;;4994284;28;20034;-79
2021/08/11 06:26:20;;;;;;;23.15;18.80;;;;;;;;;;4994650;28;20040;-80
2021/08/11 06:28:46;;;;;;;20.05;17.58;;;;;;;;;;4994067;28;20034;-80
2021/08/11 06:31:14;;;;;;;20.58;16.52;;;;;;;;;;4994435;28;20374;-80
2021/08/11 06:33:40;;;;;;;22.60;17.40;;;;;;;;;;4976975;28;20481;-80
2021/08/11 06:36:05;;;;;;;23.02;16.38;;;;;;;;;;4994164;28;20037;-79
2021/08/11 06:38:31;;;;;;;23.45;17.83;;;;;;;;;;4975643;28;20039;-78
2021/08/11 06:41:27;;;;;;;22.38;17.83;;;;;;;;;;5001123;23;20064;-82
2021/08/11 06:52:21;;;;;;;19.77;15.95;;;;;;;;;;4970318;28;19926;-80
2021/08/11 06:59:50;;;;;;;16.80;13.20;;;;;;;;;;4999771;28;20054;-81
2021/08/11 07:02:24;;;;;;;16.90;14.13;;;;;;;;;;4994961;28;20485;-77
2021/08/11 07:04:56;;;;;;;17.85;14.98;;;;;;;;;;5010351;23;20046;-77
2021/08/11 07:07:22;;;;;;;16.90;14.07;;;;;;;;;;5021785;28;20029;-77
2021/08/11 07:12:28;;;;;;;13.52;12.13;;;;;;;;;;5042915;23;20053;-79
2021/08/11 07:14:59;;;;;;;15.82;11.85;;;;;;;;;;5030422;28;20155;-77
2021/08/11 07:17:32;;;;;;;17.48;12.20;;;;;;;;;;5031438;28;20030;-77
2021/08/11 07:19:58;;;;;;;11.98;10.18;;;;;;;;;;5027191;28;20060;-76
2021/08/11 07:22:27;;;;;;;15.18;9.80;;;;;;;;;;5024445;28;20061;-79
2021/08/11 07:24:56;;;;;;;12.93;9.60;;;;;;;;;;5024412;28;20044;-79
2021/08/11 07:27:21;;;;;;;11.80;10.30;;;;;;;;;;5013626;28;20163;-78
2021/08/11 07:29:47;;;;;;;16.30;10.82;;;;;;;;;;5024550;28;20125;-77
2021/08/11 07:32:13;;;;;;;14.57;8.70;;;;;;;;;;5006359;28;20044;-77
2021/08/11 07:34:39;;;;;;;12.35;10.23;;;;;;;;;;5029980;28;20026;-79
2021/08/11 07:37:05;;;;;;;14.70;9.10;;;;;;;;;;5029444;28;20359;-79
2021/08/11 07:39:30;;;;;;;17.63;10.30;;;;;;;;;;5029448;28;20523;-78
2021/08/11 07:41:56;;;;;;;11.20;9.55;;;;;;;;;;5028397;28;20567;-78
2021/08/11 07:44:21;;;;;;;12.27;10.05;;;;;;;;;;5010304;28;20132;-78
2021/08/11 07:46:47;;;;;;;17.77;10.27;;;;;;;;;;5009032;28;20030;-78
2021/08/11 07:49:13;;;;;;;10.07;8.52;;;;;;;;;;5011958;28;20037;-78
2021/08/11 07:51:38;;;;;;;11.57;9.27;;;;;;;;;;5012055;28;20503;-77
2021/08/11 07:54:04;;;;;;;12.73;8.98;;;;;;;;;;5030850;28;20480;-77
2021/08/11 07:56:29;;;;;;;10.15;9.05;;;;;;;;;;5017195;28;20366;-78
2021/08/11 07:58:55;;;;;;;9.90;8.90;;;;;;;;;;4992132;28;20073;-78
2021/08/11 08:01:20;;;;;;;14.93;10.00;;;;;;;;;;5007325;28;20060;-79
2021/08/11 08:03:46;;;;;;;14.20;9.85;;;;;;;;;;5011438;28;20038;-79
2021/08/11 08:06:11;;;;;;;14.77;9.65;;;;;;;;;;5011212;28;20033;-78
2021/08/11 08:08:37;;;;;;;12.50;10.35;;;;;;;;;;5011644;28;20021;-78
2021/08/11 08:11:03;;;;;;;13.45;9.88;;;;;;;;;;5013995;28;20079;-79
2021/08/11 08:13:28;;;;;;;11.00;9.90;;;;;;;;;;5019762;28;20411;-77
2021/08/11 08:15:54;;;;;;;13.63;9.50;;;;;;;;;;5034917;28;20147;-77
2021/08/11 08:18:22;;;;;;;13.05;9.15;;;;;;;;;;5023691;28;20046;-77
2021/08/11 08:20:52;;;;;;;12.65;10.35;;;;;;;;;;5014803;28;20053;-77
2021/08/11 08:23:17;;;;;;;12.10;9.02;;;;;;;;;;5014953;28;20033;-78
2021/08/11 08:25:43;;;;;;;13.18;8.50;;;;;;;;;;4997448;28;20384;-77
2021/08/11 08:28:08;;;;;;;13.75;9.27;;;;;;;;;;5003516;28;20030;-79
2021/08/11 08:30:34;;;;;;;12.05;8.98;;;;;;;;;;4995651;28;20026;-77
2021/08/11 08:33:00;;;;;;;11.90;7.90;;;;;;;;;;4996020;28;20116;-78
2021/08/11 08:35:25;;;;;;;14.15;8.95;;;;;;;;;;4995630;28;20444;-78
2021/08/11 08:37:51;;;;;;;12.77;8.57;;;;;;;;;;4995636;28;20378;-78
2021/08/11 08:40:17;;;;;;;15.07;9.00;;;;;;;;;;5013447;28;21797;-78
2021/08/11 08:42:43;;;;;;;12.32;9.65;;;;;;;;;;4992608;28;20528;-78
2021/08/11 08:45:10;;;;;;;14.07;9.38;;;;;;;;;;5014299;28;20113;-79
2021/08/11 08:47:37;;;;;;;11.95;9.07;;;;;;;;;;5014568;28;20033;-78
2021/08/11 08:50:04;;;;;;;10.88;9.25;;;;;;;;;;5014066;28;20026;-79
2021/08/11 08:52:30;;;;;;;15.27;9.27;;;;;;;;;;5006866;28;20041;-78
2021/08/11 08:54:57;;;;;;;16.80;10.57;;;;;;;;;;5014366;28;20034;-78
2021/08/11 08:57:22;;;;;;;14.13;8.70;;;;;;;;;;5013856;28;20392;-79
2021/08/11 08:59:48;;;;;;;12.95;9.65;;;;;;;;;;5014765;28;20041;-79
2021/08/11 09:02:14;;;;;;;11.35;8.32;;;;;;;;;;5014148;28;20026;-78
2021/08/11 09:04:40;;;;;;;9.20;7.32;;;;;;;;;;5014169;28;20034;-78
2021/08/11 09:07:11;;;;;;;9.00;8.07;;;;;;;;;;5013778;28;20034;-79
2021/08/11 09:09:38;;;;;;;7.90;6.82;;;;;;;;;;5014285;28;20026;-78
2021/08/11 09:12:14;;;;;;;11.43;6.97;;;;;;;;;;5013819;28;20064;-78
2021/08/11 09:14:42;;;;;;;;;;;;;;;;;;5014465;28;20084;-77
2021/08/11 09:17:07;;;;;;;11.13;7.50;;;;;;;;;;5013597;28;20020;-78
2021/08/11 09:19:37;;;;;;;11.38;8.20;;;;;;;;;;5010470;28;20458;-76
2021/08/11 09:22:10;;;;;;;10.88;7.80;;;;;;;;;;5017739;28;20396;-76
2021/08/11 09:24:36;;;;;;;17.13;7.95;;;;;;;;;;5013114;28;20033;-77
2021/08/11 09:27:24;;;;;;;11.63;7.55;;;;;;;;;;5014134;28;20092;-78
2021/08/11 09:30:08;;;;;;;11.98;7.72;;;;;;;;;;5015318;28;20036;-78
2021/08/11 09:32:48;;;;;;;11.25;8.90;;;;;;;;;;5005966;28;20424;-76
2021/08/11 09:35:14;;;;;;;9.48;8.48;;;;;;;;;;5021959;28;20052;-76
2021/08/11 09:37:40;;;;;;;8.88;7.97;;;;;;;;;;5013548;28;20436;-79
2021/08/11 09:40:15;;;;;;;10.98;8.60;;;;;;;;;;5002463;28;20049;-79
2021/08/11 09:42:41;;;;;;;12.82;8.48;;;;;;;;;;4998414;28;20030;-78
2021/08/11 09:45:08;;;;;;;13.65;8.95;;;;;;;;;;5016021;28;20136;-77
2021/08/11 09:47:34;;;;;;;12.73;10.27;;;;;;;;;;5033369;28;20083;-76
2021/08/11 09:50:00;;;;;;;10.63;9.32;;;;;;;;;;5015427;28;20021;-76
2021/08/11 09:52:26;;;;;;;12.30;10.38;;;;;;;;;;5015624;28;20057;-77
2021/08/11 09:54:59;;;;;;;12.25;9.10;;;;;;;;;;4991518;28;20029;-77
2021/08/11 09:57:31;;;;;;;10.13;8.80;;;;;;;;;;5014189;28;20034;-78
2021/08/11 10:00:04;;;;;;;10.27;9.15;;;;;;;;;;5040003;23;20061;-79
2021/08/11 10:02:30;;;;;;;12.95;8.95;;;;;;;;;;5055575;23;20054;-77
2021/08/11 10:04:56;;;;;;;14.77;9.60;;;;;;;;;;5010690;28;20040;-77
2021/08/11 10:07:22;;;;;;;12.07;9.45;;;;;;;;;;5027931;28;20030;-77
2021/08/11 10:10:02;;;;;;;10.18;9.07;;;;;;;;;;5025367;28;20036;-77
2021/08/11 10:12:28;;;;;;;11.95;9.70;;;;;;;;;;5029809;28;20071;-78
2021/08/11 10:14:56;;;;;;;11.90;10.10;;;;;;;;;;5011189;28;20028;-78
2021/08/11 10:17:22;;;;;;;13.13;9.95;;;;;;;;;;5027556;28;20029;-76
2021/08/11 10:19:49;;;;;;;11.82;9.60;;;;;;;;;;5031452;28;20435;-79
2021/08/11 10:22:16;;;;;;;13.90;10.93;;;;;;;;;;5029258;28;20025;-77
2021/08/11 10:24:42;;;;;;;13.35;9.65;;;;;;;;;;5027964;28;20029;-77
2021/08/11 10:27:08;;;;;;;14.23;10.43;;;;;;;;;;5026200;28;20025;-75
2021/08/11 10:32:09;;;;;;;16.92;10.25;;;;;;;;;;4723418;26;20111;-77
2021/08/11 10:34:39;;;;;;;12.65;10.68;;;;;;;;;;5011967;28;20109;-78
2021/08/11 10:37:05;;;;;;;14.45;9.52;;;;;;;;;;5009121;28;20022;-75
2021/08/11 10:39:31;;;;;;;12.35;9.90;;;;;;;;;;5007311;28;20037;-77
2021/08/11 10:42:03;;;;;;;11.38;9.75;;;;;;;;;;5008234;28;20081;-77
2021/08/11 10:44:29;;;;;;;17.25;9.57;;;;;;;;;;4994265;28;20496;-77
2021/08/11 10:46:56;;;;;;;12.07;10.38;;;;;;;;;;5008928;28;20469;-78
2021/08/11 10:49:24;;;;;;;14.70;9.77;;;;;;;;;;5011772;28;20030;-77
2021/08/11 10:51:50;;;;;;;12.55;9.38;;;;;;;;;;4998836;28;20022;-77
2021/08/11 10:54:16;;;;;;;11.73;10.30;;;;;;;;;;4977373;28;20073;-77
2021/08/11 10:56:49;;;;;;;14.55;10.23;;;;;;;;;;4992061;28;20023;-76
2021/08/11 10:59:28;;;;;;;12.35;9.73;;;;;;;;;;4996794;28;20073;-77
2021/08/11 11:01:58;;;;;;;15.93;9.90;;;;;;;;;;4972147;28;20034;-77
2021/08/11 11:04:39;;;;;;;18.83;10.15;;;;;;;;;;5008893;28;20443;-79
2021/08/11 11:07:20;;;;;;;13.27;10.10;;;;;;;;;;5002268;28;20032;-78
2021/08/11 11:10:20;;;;;;;13.52;9.65;;;;;;;;;;4952074;28;20078;-78
2021/08/11 11:12:46;;;;;;;13.38;9.45;;;;;;;;;;4979353;28;20105;-78
2021/08/11 11:15:12;;;;;;;12.95;9.45;;;;;;;;;;4961475;28;20029;-77
2021/08/11 11:20:11;;;;;;;13.23;9.70;;;;;;;;;;5031924;23;20168;-76
2021/08/11 11:22:39;;;;;;;17.77;11.07;;;;;;;;;;4998653;28;20039;-76
2021/08/11 11:25:06;;;;;;;14.75;10.77;;;;;;;;;;5023064;28;20509;-76
2021/08/11 11:27:44;;;;;;;17.70;14.65;;;;;;;;;;5006251;28;20396;-77
2021/08/11 11:30:13;;;;;;;11.65;9.63;;;;;;;;;;4993691;28;20030;-79
2021/08/11 11:32:39;;;;;;;18.52;9.93;;;;;;;;;;4993131;28;20133;-75
2021/08/11 11:35:15;;;;;;;13.25;10.70;;;;;;;;;;4994125;28;20533;-76
2021/08/11 11:37:44;;;;;;;15.23;10.30;;;;;;;;;;4998213;28;20033;-76
2021/08/11 11:40:20;;;;;;;12.98;10.13;;;;;;;;;;4998901;28;20042;-84
2021/08/11 11:42:45;;;;;;;12.18;10.45;;;;;;;;;;4998256;28;20045;-76
2021/08/11 11:45:40;;;;;;;15.15;10.50;;;;;;;;;;5004228;28;20034;-78
2021/08/11 11:48:06;;;;;;;13.88;10.18;;;;;;;;;;4983374;28;20026;-76
2021/08/11 11:50:43;;;;;;;12.15;10.45;;;;;;;;;;5009900;28;20017;-76
2021/08/11 11:53:14;;;;;;;13.32;10.18;;;;;;;;;;5002301;28;20045;-77
2021/08/11 11:58:41;;;;;;;16.45;10.20;;;;;;;;;;5013798;28;20399;-76
2021/08/11 12:01:06;;;;;;;14.98;10.60;;;;;;;;;;5022984;23;20049;-77
2021/08/11 12:09:04;;;;;;;12.98;10.23;;;;;;;;;;5040116;23;19932;-80
2021/08/11 12:11:30;;;;;;;12.20;11.00;;;;;;;;;;5033114;28;20037;-81
2021/08/11 12:13:56;;;;;;;14.30;10.30;;;;;;;;;;5033171;28;20041;-80
2021/08/11 12:16:22;;;;;;;12.35;11.07;;;;;;;;;;5032978;28;20091;-81
2021/08/11 12:18:48;;;;;;;13.52;10.02;;;;;;;;;;5032615;28;20267;-80
2021/08/11 12:21:19;;;;;;;14.70;11.27;;;;;;;;;;5033174;28;20029;-80
2021/08/11 12:23:45;;;;;;;16.38;11.25;;;;;;;;;;5034603;28;20043;-81
2021/08/11 12:26:15;;;;;;;18.98;10.40;;;;;;;;;;5052706;28;20021;-80
2021/08/11 12:28:48;;;;;;;11.45;10.27;;;;;;;;;;5052606;28;20060;-81
2021/08/11 12:31:14;;;;;;;15.02;10.75;;;;;;;;;;5052768;28;20541;-82
2021/08/11 12:33:42;;;;;;;13.30;10.40;;;;;;;;;;5052533;28;20025;-81
2021/08/11 12:36:19;;;;;;;14.18;10.00;;;;;;;;;;5052840;28;20053;-82
2021/08/11 12:38:57;;;;;;;12.07;10.32;;;;;;;;;;5042079;28;20411;-79
2021/08/11 12:41:24;;;;;;;11.95;10.13;;;;;;;;;;5032733;28;20137;-82
2021/08/11 12:43:51;;;;;;;14.07;10.82;;;;;;;;;;5032831;28;20041;-80
2021/08/11 12:46:17;;;;;;;39.30;11.90;;;;;;;;;;5031356;28;20060;-80
2021/08/11 12:48:43;;;;;;;11.55;9.77;;;;;;;;;;5050404;28;20325;-80
2021/08/11 12:51:22;;;;;;;13.45;9.57;;;;;;;;;;5035131;28;20037;-81
2021/08/11 12:54:02;;;;;;;13.57;9.77;;;;;;;;;;5038292;28;20041;-79
2021/08/11 12:56:28;;;;;;;13.05;9.68;;;;;;;;;;5014805;28;20437;-81
2021/08/11 12:58:56;;;;;;;11.48;9.65;;;;;;;;;;5032881;28;20045;-81
2021/08/11 13:01:33;;;;;;;21.10;10.25;;;;;;;;;;5032758;28;20022;-81
2021/08/11 13:03:59;;;;;;;13.48;9.93;;;;;;;;;;5032870;28;20036;-81
2021/08/11 13:06:38;;;;;;;15.77;11.05;;;;;;;;;;5033048;28;20036;-79
2021/08/11 13:09:05;;;;;;;14.40;9.63;;;;;;;;;;5032758;28;20110;-81
2021/08/11 13:11:49;;;;;;;12.60;9.32;;;;;;;;;;5033320;28;20040;-80
2021/08/11 13:14:14;;;;;;;13.88;10.07;;;;;;;;;;5033743;28;20032;-80
2021/08/11 13:16:59;;;;;;;15.35;10.32;;;;;;;;;;5015909;28;20025;-81
2021/08/11 13:19:26;;;;;;;10.90;8.95;;;;;;;;;;5033255;28;20041;-81
2021/08/11 13:21:51;;;;;;;15.85;10.15;;;;;;;;;;5033420;28;20040;-80
2021/08/11 13:24:17;;;;;;;18.98;10.65;;;;;;;;;;5020328;28;20033;-80
2021/08/11 13:26:42;;;;;;;13.90;9.57;;;;;;;;;;5044151;28;20053;-81
2021/08/11 13:29:08;;;;;;;13.85;11.15;;;;;;;;;;5032958;28;20091;-81
2021/08/11 13:31:33;;;;;;;16.70;11.05;;;;;;;;;;5032936;28;20030;-81
2021/08/11 13:33:59;;;;;;;13.77;10.55;;;;;;;;;;5032684;28;20037;-81
2021/08/11 13:36:24;;;;;;;21.13;11.52;;;;;;;;;;5032866;28;20021;-79
2021/08/11 13:38:50;;;;;;;14.68;10.15;;;;;;;;;;5032693;28;20041;-81
2021/08/11 13:41:15;;;;;;;13.00;10.73;;;;;;;;;;5032199;28;20051;-80
2021/08/11 13:43:41;;;;;;;14.35;10.40;;;;;;;;;;5034197;28;20040;-80
2021/08/11 13:46:07;;;;;;;14.77;10.90;;;;;;;;;;5034117;28;20031;-81
2021/08/11 13:48:33;;;;;;;13.40;10.27;;;;;;;;;;5010447;28;20030;-78
2021/08/11 13:50:59;;;;;;;13.18;10.10;;;;;;;;;;5042202;28;20044;-79
2021/08/11 13:53:29;;;;;;;12.20;10.40;;;;;;;;;;5035749;28;20458;-80
2021/08/11 13:55:54;;;;;;;12.23;10.32;;;;;;;;;;5032911;28;20033;-79
2021/08/11 13:58:20;;;;;;;13.20;10.38;;;;;;;;;;5033130;28;20041;-80
2021/08/11 14:00:46;;;;;;;15.95;9.95;;;;;;;;;;5033687;28;20029;-78
2021/08/11 14:03:11;;;;;;;14.88;10.90;;;;;;;;;;5037929;28;20035;-79
2021/08/11 14:05:37;;;;;;;12.77;9.80;;;;;;;;;;5032877;28;20492;-79
2021/08/11 14:08:02;;;;;;;13.85;10.60;;;;;;;;;;5031591;28;20036;-79
2021/08/11 14:10:28;;;;;;;56.67;14.82;;;;;;;;;;5033086;28;20488;-79
2021/08/11 14:12:53;;;;;;;16.02;11.35;;;;;;;;;;5033404;28;20480;-80
2021/08/11 14:15:19;;;;;;;21.85;11.02;;;;;;;;;;5033309;28;20132;-78
2021/08/11 14:17:44;;;;;;;14.38;10.88;;;;;;;;;;5051479;28;20029;-79
2021/08/11 14:20:10;;;;;;;14.45;10.85;;;;;;;;;;5033476;28;20148;-79
2021/08/11 14:22:37;;;;;;;15.35;10.95;;;;;;;;;;5051424;28;20078;-77
2021/08/11 14:25:02;;;;;;;16.13;11.27;;;;;;;;;;5049390;28;20025;-81
2021/08/11 14:27:28;;;;;;;12.93;10.70;;;;;;;;;;5046944;28;20029;-81
2021/08/11 14:29:54;;;;;;;14.95;11.55;;;;;;;;;;5041467;28;20487;-82
2021/08/11 14:32:19;;;;;;;14.35;10.48;;;;;;;;;;5037891;28;20026;-81
2021/08/11 14:34:45;;;;;;;15.73;10.73;;;;;;;;;;5041509;28;20092;-80
2021/08/11 14:37:10;;;;;;;18.90;11.35;;;;;;;;;;5032938;28;20021;-81
2021/08/11 14:39:37;;;;;;;24.40;11.73;;;;;;;;;;5032762;28;20095;-80
2021/08/11 14:42:03;;;;;;;20.50;11.05;;;;;;;;;;5032206;28;20442;-80
2021/08/11 14:44:29;;;;;;;12.85;10.93;;;;;;;;;;5045885;28;20037;-82
2021/08/11 14:46:54;;;;;;;14.00;10.32;;;;;;;;;;5034632;28;20021;-81
2021/08/11 14:49:21;;;;;;;23.88;12.15;;;;;;;;;;5052072;28;20475;-80
2021/08/11 14:51:47;;;;;;;16.67;11.65;;;;;;;;;;5045418;28;20021;-81
2021/08/11 14:54:13;;;;;;;38.30;27.17;;;;;;;;;;5043256;28;20025;-80
2021/08/11 14:56:41;;;;;;;20.85;12.25;;;;;;;;;;5052836;28;20036;-81